Time;durP1;ratioP1;P1;durP2;ratioP2;P2;SDS_P1;SDS_P2;PMS_P1;PMS_P2;Temp;Humidity;BMP_temperature;BMP_pressure;BME280_temperature;BME280_humidity;BME280_pressure;Samples;Min_cycle;Max_cycle;Signal;HPM_P1;HPM_P2
2023/11/16 16:16:31;;;;;;;2.77;1.93;;;8.00;97.30;;;;;;5074444;27;20700;-59
2023/11/16 16:18:57;;;;;;;4.23;2.40;;;8.20;97.30;;;;;;5049824;28;20415;-59
2023/11/16 16:21:23;;;;;;;1.47;1.37;;;8.10;97.30;;;;;;5032174;28;20522;-59
2023/11/16 16:23:48;;;;;;;1.50;1.40;;;8.00;97.30;;;;;;5016710;28;20538;-59
2023/11/16 16:26:14;;;;;;;1.97;1.87;;;8.00;97.30;;;;;;5038928;28;20234;-59
2023/11/16 16:28:45;;;;;;;1.07;0.97;;;7.90;97.30;;;;;;5037147;28;20187;-59
2023/11/16 16:31:22;;;;;;;1.00;0.90;;;7.90;97.30;;;;;;5019238;28;20723;-59
2023/11/16 16:33:50;;;;;;;1.13;1.03;;;8.00;97.30;;;;;;5015497;28;20435;-59
2023/11/16 16:36:16;;;;;;;1.33;1.23;;;8.00;97.30;;;;;;5018073;28;20473;-59
2023/11/16 16:38:41;;;;;;;1.33;1.23;;;8.00;97.30;;;;;;5025784;28;20419;-59
2023/11/16 16:41:10;;;;;;;1.00;0.90;;;8.00;97.30;;;;;;5020481;28;20593;-59
2023/11/16 16:43:36;;;;;;;0.90;0.80;;;8.00;97.30;;;;;;5025042;28;20184;-59
2023/11/16 16:46:06;;;;;;;1.63;1.03;;;8.00;97.30;;;;;;5024557;28;20423;-60
2023/11/16 16:48:31;;;;;;;1.10;1.00;;;8.00;97.30;;;;;;5019380;28;20419;-59
2023/11/16 16:50:57;;;;;;;1.30;1.20;;;8.00;97.30;;;;;;5019776;28;20413;-59
2023/11/16 16:53:23;;;;;;;1.53;1.20;;;8.00;97.30;;;;;;5023709;28;20233;-59
2023/11/16 16:55:48;;;;;;;0.90;0.80;;;7.90;97.30;;;;;;5023775;28;20490;-59
2023/11/16 16:58:14;;;;;;;1.50;1.13;;;7.80;97.30;;;;;;5026642;28;20241;-59
2023/11/16 17:00:40;;;;;;;1.20;1.10;;;7.70;97.30;;;;;;5020089;28;20181;-59
2023/11/16 17:03:05;;;;;;;1.00;0.90;;;7.70;97.30;;;;;;5028103;28;20202;-59
2023/11/16 17:05:31;;;;;;;1.00;0.90;;;7.70;97.30;;;;;;5023028;28;20189;-59
2023/11/16 17:07:57;;;;;;;1.20;1.10;;;7.60;97.30;;;;;;5024483;28;20212;-59
2023/11/16 17:10:27;;;;;;;2.07;1.83;;;7.60;97.30;;;;;;5018886;28;20461;-59
2023/11/16 17:12:55;;;;;;;1.10;1.00;;;7.60;97.30;;;;;;5010916;28;20199;-59
2023/11/16 17:15:21;;;;;;;1.20;1.10;;;7.60;97.30;;;;;;5011929;28;20515;-59
2023/11/16 17:17:46;;;;;;;1.30;1.20;;;7.60;97.30;;;;;;5022463;28;20447;-60
2023/11/16 17:20:13;;;;;;;1.00;0.90;;;7.70;97.30;;;;;;5019197;28;20181;-59
2023/11/16 17:22:40;;;;;;;1.87;1.77;;;7.70;97.30;;;;;;5023616;28;20196;-60
2023/11/16 17:25:06;;;;;;;1.10;1.00;;;7.70;97.30;;;;;;5019054;28;20502;-60
2023/11/16 17:27:35;;;;;;;1.17;1.07;;;7.60;97.30;;;;;;5013712;28;21030;-59
2023/11/16 17:30:05;;;;;;;1.00;0.90;;;7.60;97.30;;;;;;5004635;28;20417;-59
2023/11/16 17:32:32;;;;;;;1.10;1.00;;;7.50;97.30;;;;;;5012180;28;20836;-59
2023/11/16 17:34:57;;;;;;;1.63;1.53;;;7.60;97.30;;;;;;5004688;28;20515;-59
2023/11/16 17:37:23;;;;;;;1.10;1.00;;;7.60;97.30;;;;;;5015590;28;20427;-59
2023/11/16 17:39:50;;;;;;;1.80;1.70;;;7.60;97.30;;;;;;5011973;28;20256;-59
2023/11/16 17:42:16;;;;;;;2.23;2.10;;;7.60;97.30;;;;;;5017389;28;20205;-59
2023/11/16 17:44:42;;;;;;;1.10;1.00;;;7.70;97.30;;;;;;5011891;28;20479;-59
2023/11/16 17:47:09;;;;;;;1.33;1.23;;;7.70;97.30;;;;;;5017891;28;20420;-59
2023/11/16 17:49:35;;;;;;;1.23;1.13;;;7.70;97.30;;;;;;5015617;28;20838;-59
2023/11/16 17:52:01;;;;;;;1.43;1.20;;;7.90;97.30;;;;;;5040904;28;20592;-59
2023/11/16 17:54:27;;;;;;;1.27;1.17;;;8.00;97.30;;;;;;5005137;28;20464;-59
2023/11/16 17:56:53;;;;;;;2.50;2.30;;;8.10;97.30;;;;;;5011689;28;20416;-59
2023/11/16 17:59:19;;;;;;;1.10;1.00;;;8.20;97.30;;;;;;5034840;28;20187;-59
2023/11/16 18:01:45;;;;;;;1.00;0.90;;;8.20;97.30;;;;;;5013996;28;20193;-60
2023/11/16 18:04:11;;;;;;;2.00;1.60;;;8.30;97.30;;;;;;5013938;28;20423;-59
2023/11/16 18:06:37;;;;;;;1.20;1.10;;;8.30;97.30;;;;;;5010458;28;20580;-59
2023/11/16 18:09:05;;;;;;;1.00;0.90;;;8.30;97.30;;;;;;5008585;28;20424;-59
2023/11/16 18:11:33;;;;;;;1.23;1.13;;;8.40;97.30;;;;;;5012556;28;20201;-59
2023/11/16 18:13:59;;;;;;;1.47;1.37;;;8.50;97.30;;;;;;5013151;28;20404;-59
2023/11/16 18:16:26;;;;;;;1.37;1.27;;;8.50;97.30;;;;;;5015847;28;21006;-59
2023/11/16 18:18:52;;;;;;;1.30;1.20;;;8.50;97.30;;;;;;5014133;28;20441;-59
2023/11/16 18:21:18;;;;;;;1.10;1.00;;;8.50;97.30;;;;;;5013989;28;20428;-59
2023/11/16 18:23:44;;;;;;;1.40;1.30;;;8.50;97.30;;;;;;5014590;28;20424;-59
2023/11/16 18:26:10;;;;;;;1.30;1.20;;;8.40;97.30;;;;;;5008452;28;20477;-59
2023/11/16 18:28:38;;;;;;;1.97;1.87;;;8.30;97.30;;;;;;5014642;28;20439;-60
2023/11/16 18:31:04;;;;;;;1.07;0.97;;;8.30;97.30;;;;;;5014318;28;20660;-59
2023/11/16 18:33:30;;;;;;;25.53;2.07;;;8.20;97.30;;;;;;5012314;28;20443;-59
2023/11/16 18:36:01;;;;;;;1.13;1.03;;;8.20;97.30;;;;;;5015285;28;20509;-59
2023/11/16 18:38:27;;;;;;;37.67;2.10;;;8.20;97.30;;;;;;5029091;28;20460;-59
2023/11/16 18:40:54;;;;;;;20.77;2.07;;;8.10;97.30;;;;;;5022720;28;20454;-59
2023/11/16 18:43:21;;;;;;;1.67;1.40;;;8.00;97.30;;;;;;5007462;28;20456;-59
2023/11/16 18:45:48;;;;;;;2.70;1.67;;;8.00;97.30;;;;;;5027778;28;20431;-59
2023/11/16 18:48:14;;;;;;;1.20;1.10;;;7.90;97.30;;;;;;5027434;28;20440;-59
2023/11/16 18:50:40;;;;;;;1.10;1.00;;;7.90;97.30;;;;;;5008419;28;20427;-59
2023/11/16 18:53:07;;;;;;;1.30;1.20;;;7.90;97.30;;;;;;5007607;28;21441;-59
2023/11/16 18:55:34;;;;;;;1.10;1.00;;;7.90;97.30;;;;;;5009911;28;20526;-59
2023/11/16 18:57:59;;;;;;;2.53;2.20;;;8.00;97.30;;;;;;5014282;28;20420;-59
2023/11/16 19:00:25;;;;;;;1.33;1.23;;;8.10;97.30;;;;;;5008750;28;20843;-59
2023/11/16 19:02:51;;;;;;;1.70;1.60;;;8.20;97.30;;;;;;5010225;28;20536;-59
2023/11/16 19:05:18;;;;;;;1.30;1.20;;;8.20;97.30;;;;;;5018562;28;20401;-59
2023/11/16 19:07:44;;;;;;;1.20;1.10;;;8.20;97.30;;;;;;5004253;28;20506;-59
2023/11/16 19:10:10;;;;;;;4.73;2.60;;;8.20;97.30;;;;;;5023083;28;20475;-59
2023/11/16 19:12:40;;;;;;;3.77;1.20;;;8.20;97.30;;;;;;5007027;28;20468;-59
2023/11/16 19:15:07;;;;;;;1.50;1.40;;;8.20;97.30;;;;;;5007068;28;20225;-59
2023/11/16 19:17:32;;;;;;;1.27;1.17;;;8.30;97.30;;;;;;5005440;28;20475;-59
2023/11/16 19:20:00;;;;;;;1.83;1.77;;;8.20;97.30;;;;;;5005723;28;20436;-59
2023/11/16 19:22:26;;;;;;;1.20;1.10;;;8.20;97.30;;;;;;5007340;28;20205;-59
2023/11/16 19:24:52;;;;;;;1.73;1.43;;;8.20;97.30;;;;;;5006182;28;20412;-59
2023/11/16 19:27:18;;;;;;;1.33;1.23;;;8.10;97.30;;;;;;5005518;28;20621;-59
2023/11/16 19:29:44;;;;;;;1.30;1.20;;;8.10;97.30;;;;;;5005236;28;20679;-59
2023/11/16 19:32:09;;;;;;;5.60;3.13;;;8.00;97.30;;;;;;5012369;28;20440;-59
2023/11/16 19:34:35;;;;;;;3.80;3.60;;;7.90;97.30;;;;;;5007812;28;20692;-59
2023/11/16 19:37:01;;;;;;;1.00;0.90;;;7.90;97.30;;;;;;5005557;28;20543;-59
2023/11/16 19:39:30;;;;;;;4.57;1.53;;;7.90;97.30;;;;;;5003828;28;20483;-59
2023/11/16 19:41:56;;;;;;;1.30;1.20;;;7.80;97.30;;;;;;5013423;28;20197;-59
2023/11/16 19:44:21;;;;;;;2.50;1.50;;;7.70;97.30;;;;;;5006655;28;20424;-59
2023/11/16 19:46:49;;;;;;;3.00;1.63;;;7.60;97.30;;;;;;5022141;28;20415;-59
2023/11/16 19:49:16;;;;;;;1.83;1.73;;;7.50;97.30;;;;;;5002220;28;20610;-59
2023/11/16 19:51:42;;;;;;;1.80;1.53;;;7.30;97.30;;;;;;5007838;28;20475;-59
2023/11/16 19:54:08;;;;;;;2.13;1.97;;;7.30;97.30;;;;;;5006748;28;20447;-59
2023/11/16 19:56:33;;;;;;;1.47;1.37;;;7.30;97.30;;;;;;5006521;28;20621;-59
2023/11/16 19:58:59;;;;;;;1.77;1.53;;;7.30;97.30;;;;;;5004475;28;20416;-59
2023/11/16 20:01:28;;;;;;;1.53;1.43;;;7.20;97.30;;;;;;5007679;28;20197;-59
2023/11/16 20:03:54;;;;;;;1.83;1.60;;;7.20;97.30;;;;;;5007860;28;20177;-59
2023/11/16 20:06:21;;;;;;;1.20;1.10;;;7.20;97.30;;;;;;5008664;28;20424;-59
2023/11/16 20:08:46;;;;;;;1.63;1.53;;;7.20;97.30;;;;;;5004398;28;20442;-59
2023/11/16 20:11:13;;;;;;;2.80;2.60;;;7.10;97.30;;;;;;5007497;28;20931;-59
2023/11/16 20:13:39;;;;;;;2.70;1.63;;;7.10;97.30;;;;;;5006220;28;20173;-59
2023/11/16 20:16:09;;;;;;;1.37;1.30;;;7.00;97.30;;;;;;5007526;28;20502;-60
2023/11/16 20:18:35;;;;;;;1.20;1.10;;;7.00;97.30;;;;;;5007111;28;20177;-59
2023/11/16 20:21:03;;;;;;;6.83;2.90;;;7.00;97.30;;;;;;5006523;28;20464;-59
2023/11/16 20:23:29;;;;;;;8.63;1.60;;;6.90;97.30;;;;;;5007038;28;20814;-59
2023/11/16 20:25:55;;;;;;;1.83;1.73;;;6.90;97.30;;;;;;5008011;28;20423;-59
2023/11/16 20:28:23;;;;;;;1.33;1.30;;;6.80;97.30;;;;;;5014584;28;20184;-59
2023/11/16 20:30:49;;;;;;;2.70;1.63;;;6.80;97.30;;;;;;5012179;28;20173;-59
2023/11/16 20:33:15;;;;;;;2.23;2.03;;;6.70;97.30;;;;;;5021098;28;20443;-59
2023/11/16 20:35:41;;;;;;;1.43;1.33;;;6.70;97.30;;;;;;5010891;28;20470;-59
2023/11/16 20:38:06;;;;;;;1.37;1.20;;;6.60;97.30;;;;;;5009142;28;20176;-59
2023/11/16 20:40:32;;;;;;;1.30;1.20;;;6.60;97.30;;;;;;5008018;28;20416;-59
2023/11/16 20:42:59;;;;;;;2.07;1.93;;;6.50;97.30;;;;;;5035287;28;20197;-59
2023/11/16 20:45:30;;;;;;;1.20;1.10;;;6.50;97.30;;;;;;5034225;28;20182;-59
2023/11/16 20:47:56;;;;;;;1.20;1.10;;;6.50;97.30;;;;;;5008229;28;20411;-59
2023/11/16 20:50:22;;;;;;;1.10;1.00;;;6.40;97.30;;;;;;5015434;28;20473;-59
2023/11/16 20:52:48;;;;;;;2.13;1.73;;;6.30;97.30;;;;;;5014532;28;20467;-59
2023/11/16 20:55:14;;;;;;;1.27;1.17;;;6.20;97.30;;;;;;5007276;28;20444;-59
2023/11/16 20:57:40;;;;;;;2.00;1.90;;;6.20;97.30;;;;;;5007267;28;20412;-59
2023/11/16 21:00:17;;;;;;;6.93;2.80;;;6.20;97.30;;;;;;5005037;28;20200;-59
2023/11/16 21:02:46;;;;;;;1.20;1.10;;;6.10;97.30;;;;;;5004014;28;20997;-59
2023/11/16 21:05:15;;;;;;;2.00;1.90;;;6.10;97.30;;;;;;5009342;28;20424;-59
2023/11/16 21:07:42;;;;;;;1.30;1.20;;;6.00;97.30;;;;;;5010395;28;20424;-59
2023/11/16 21:10:08;;;;;;;2.27;2.07;;;6.00;97.30;;;;;;5011070;28;20558;-59
2023/11/16 21:12:34;;;;;;;4.83;1.60;;;6.00;97.30;;;;;;5010644;28;21001;-59
2023/11/16 21:15:01;;;;;;;2.67;2.40;;;5.90;97.30;;;;;;5009981;28;20993;-59
2023/11/16 21:17:27;;;;;;;1.90;1.80;;;5.90;97.30;;;;;;5008903;28;20453;-59
2023/11/16 21:19:52;;;;;;;1.60;1.50;;;5.90;97.30;;;;;;5005561;28;20494;-59
2023/11/16 21:22:19;;;;;;;2.63;2.27;;;5.90;97.30;;;;;;5009957;28;20800;-59
2023/11/16 21:24:44;;;;;;;2.43;2.23;;;5.80;97.30;;;;;;5009001;28;20182;-59
2023/11/16 21:27:13;;;;;;;3.07;2.20;;;5.80;97.30;;;;;;5009795;28;20431;-59
2023/11/16 21:29:41;;;;;;;1.67;1.40;;;5.90;97.30;;;;;;5008759;28;20199;-59
2023/11/16 21:32:09;;;;;;;3.73;2.30;;;5.90;97.30;;;;;;5010635;28;20679;-59
2023/11/16 21:34:36;;;;;;;1.77;1.67;;;5.90;97.30;;;;;;5007179;28;20460;-59
2023/11/16 21:37:01;;;;;;;1.30;1.20;;;5.80;97.30;;;;;;5001619;28;20456;-59
2023/11/16 21:39:28;;;;;;;9.30;2.60;;;5.80;97.30;;;;;;5004155;28;20468;-59
2023/11/16 21:41:55;;;;;;;2.10;1.97;;;5.70;97.30;;;;;;5004056;28;20212;-59
2023/11/16 21:44:21;;;;;;;2.50;2.30;;;5.70;97.30;;;;;;5019048;28;20454;-59
2023/11/16 21:46:48;;;;;;;1.30;1.20;;;5.70;97.30;;;;;;5001406;28;20421;-59
2023/11/16 21:49:14;;;;;;;3.10;2.93;;;5.70;97.30;;;;;;5007379;28;20420;-59
2023/11/16 21:51:40;;;;;;;1.40;1.30;;;5.70;97.30;;;;;;5007676;28;20443;-59
2023/11/16 21:54:06;;;;;;;2.40;1.70;;;5.70;97.30;;;;;;5010016;28;20920;-59
2023/11/16 21:56:32;;;;;;;7.40;2.37;;;5.70;97.30;;;;;;5005762;28;20587;-59
2023/11/16 21:58:58;;;;;;;2.07;1.93;;;5.70;97.30;;;;;;5000758;28;21110;-59
2023/11/16 22:01:23;;;;;;;3.83;2.17;;;5.70;97.30;;;;;;5009126;28;20177;-59
2023/11/16 22:03:49;;;;;;;1.47;1.40;;;5.70;97.30;;;;;;5005477;28;20421;-59
2023/11/16 22:06:15;;;;;;;1.63;1.53;;;5.70;97.30;;;;;;5008458;28;20594;-59
2023/11/16 22:08:41;;;;;;;2.80;2.30;;;5.70;97.30;;;;;;5006709;28;20185;-59
2023/11/16 22:11:06;;;;;;;1.30;1.20;;;5.70;97.30;;;;;;5009409;28;20946;-59
2023/11/16 22:13:32;;;;;;;2.50;2.30;;;5.70;97.30;;;;;;5005600;28;20173;-59
2023/11/16 22:15:58;;;;;;;2.13;1.97;;;5.70;97.30;;;;;;5002410;28;20271;-59
2023/11/16 22:18:24;;;;;;;1.10;1.10;;;5.70;97.30;;;;;;5007982;28;20826;-59
2023/11/16 22:20:50;;;;;;;1.87;1.77;;;5.60;97.30;;;;;;5007931;28;20181;-59
2023/11/16 22:23:15;;;;;;;1.60;1.30;;;5.60;97.30;;;;;;5007721;28;20223;-59
2023/11/16 22:25:41;;;;;;;2.20;1.77;;;5.60;97.30;;;;;;5006290;28;20188;-60
2023/11/16 22:28:09;;;;;;;1.20;1.10;;;5.60;97.30;;;;;;5008039;28;20174;-59
2023/11/16 22:30:34;;;;;;;1.93;1.83;;;5.50;97.30;;;;;;5005997;28;20495;-59
2023/11/16 22:33:00;;;;;;;4.97;1.90;;;5.50;97.30;;;;;;5008854;28;21019;-59
2023/11/16 22:35:26;;;;;;;1.87;1.77;;;5.50;97.30;;;;;;5006971;28;20208;-59
2023/11/16 22:37:51;;;;;;;4.97;2.03;;;5.40;97.30;;;;;;5007654;28;20189;-59
2023/11/16 22:40:19;;;;;;;1.20;1.10;;;5.40;97.30;;;;;;5007494;28;20582;-59
2023/11/16 22:42:45;;;;;;;1.63;1.53;;;5.40;97.30;;;;;;5007315;28;20206;-60
2023/11/16 22:45:12;;;;;;;3.80;1.57;;;5.40;97.30;;;;;;5009031;28;20432;-59
2023/11/16 22:47:39;;;;;;;1.10;1.00;;;5.40;97.30;;;;;;5018595;28;20435;-59
2023/11/16 22:50:09;;;;;;;1.10;1.00;;;5.40;97.30;;;;;;5008473;28;20787;-59
2023/11/16 22:52:35;;;;;;;1.77;1.67;;;5.40;97.30;;;;;;5006739;28;20440;-59
2023/11/16 22:55:03;;;;;;;2.40;1.97;;;5.40;97.30;;;;;;5002026;28;20828;-59
2023/11/16 22:57:28;;;;;;;1.30;1.20;;;5.30;97.30;;;;;;5007641;28;20427;-59
2023/11/16 22:59:54;;;;;;;3.13;2.17;;;5.20;97.30;;;;;;5004779;28;20504;-59
